Time;durP1;ratioP1;P1;durP2;ratioP2;P2;SDS_P1;SDS_P2;PMS_P1;PMS_P2;Temp;Humidity;BMP_temperature;BMP_pressure;BME280_temperature;BME280_humidity;BME280_pressure;Samples;Min_cycle;Max_cycle;Signal;HPM_P1;HPM_P2
2023/10/15 00:02:17;;;;;;;;;;;;;;;18.74;69.58;99891.72;5423352;32;34707;-71
2023/10/15 00:05:25;;;;;;;;;;;;;;;18.86;67.45;99904.03;5425326;32;34771;-70
2023/10/15 00:08:28;;;;;;;;;;;;;;;18.50;67.58;99912.28;5422096;32;34988;-71
2023/10/15 00:11:30;;;;;;;;;;;;;;;18.41;66.63;99920.00;5426318;32;35916;-71
2023/10/15 00:14:32;;;;;;;;;;;;;;;18.49;66.43;99930.06;5421776;32;33134;-71
2023/10/15 00:17:34;;;;;;;;;;;;;;;18.24;66.92;99932.97;5425779;32;34915;-71
2023/10/15 00:20:40;;;;;;;;;;;;;;;18.09;67.67;99930.50;5422846;32;34413;-70
2023/10/15 00:23:44;;;;;;;;;;;;;;;17.93;67.43;99926.50;5421950;32;34862;-70
2023/10/15 00:26:46;;;;;;;;;;;;;;;17.70;68.87;99928.22;5409964;32;35048;-71
2023/10/15 00:29:48;;;;;;;;;;;;;;;17.53;69.44;99942.81;5428772;32;36749;-70
2023/10/15 00:32:52;;;;;;;;;;;;;;;18.56;66.38;99955.22;5412189;32;34968;-71
2023/10/15 00:35:55;;;;;;;;;;;;;;;18.75;64.94;99978.59;5425261;32;35403;-71
2023/10/15 00:38:57;;;;;;;;;;;;;;;18.00;67.66;99976.44;5424969;32;34774;-71
2023/10/15 00:41:59;;;;;;;;;;;;;;;17.87;68.00;99984.50;5431648;32;35810;-70
2023/10/15 00:45:03;;;;;;;;;;;;;;;18.13;67.99;99994.97;5422821;32;34884;-70
2023/10/15 00:48:07;;;;;;;;;;;;;;;18.03;68.93;99996.62;5415584;32;34368;-72
2023/10/15 00:51:13;;;;;;;;;;;;;;;17.29;70.60;99998.59;5421856;32;35115;-70
2023/10/15 00:54:16;;;;;;;;;;;;;;;17.72;68.83;99979.50;5425833;32;35439;-70
2023/10/15 00:57:27;;;;;;;;;;;;;;;17.82;71.26;99975.16;5420382;32;34394;-70
2023/10/15 01:00:53;;;;;;;;;;;;;;;17.88;68.96;99982.69;5418432;32;35461;-70
2023/10/15 01:03:56;;;;;;;;;;;;;;;17.66;68.76;99991.41;5417006;32;34860;-70
2023/10/15 01:07:11;;;;;;;;;;;;;;;17.89;69.45;99999.47;5420357;32;35334;-70
2023/10/15 01:10:36;;;;;;;;;;;;;;;17.58;69.77;99994.63;5428930;32;35094;-70
2023/10/15 01:13:39;;;;;;;;;;;;;;;16.82;72.97;99989.59;5425838;32;35012;-70
2023/10/15 01:16:41;;;;;;;;;;;;;;;17.00;72.08;99987.41;5419282;32;34822;-71
2023/10/15 01:19:43;;;;;;;;;;;;;;;16.63;76.40;99999.78;5432049;32;34444;-70
2023/10/15 01:22:46;;;;;;;;;;;;;;;16.58;74.57;99997.44;5414571;32;34817;-70
2023/10/15 01:25:48;;;;;;;;;;;;;;;16.99;73.71;100001.62;5425224;32;34362;-70
2023/10/15 01:28:51;;;;;;;;;;;;;;;17.60;71.69;99992.72;5418730;32;35168;-72
2023/10/15 01:31:58;;;;;;;;;;;;;;;17.15;71.89;99975.69;5425977;32;34818;-71
2023/10/15 01:35:04;;;;;;;;;;;;;;;16.66;74.28;99976.50;5424297;32;35065;-71
2023/10/15 01:38:17;;;;;;;;;;;;;;;16.75;73.64;99970.59;5419262;32;34933;-70
2023/10/15 01:41:19;;;;;;;;;;;;;;;16.93;71.97;99962.25;5422059;32;35225;-70
2023/10/15 01:44:24;;;;;;;;;;;;;;;15.98;77.85;99975.06;5414426;32;34950;-70
2023/10/15 01:47:34;;;;;;;;;;;;;;;16.07;76.21;99985.97;5427707;32;34903;-71
2023/10/15 01:53:45;;;;;;;;;;;;;;;16.67;74.80;100007.41;5422845;32;34808;-72
2023/10/15 01:56:47;;;;;;;;;;;;;;;16.62;74.52;100009.53;5426479;32;35080;-70
2023/10/15 02:00:03;;;;;;;;;;;;;;;15.83;77.73;100020.28;5425078;32;34944;-72
2023/10/15 02:03:07;;;;;;;;;;;;;;;16.30;75.88;100016.22;5419143;32;35643;-70
2023/10/15 02:06:09;;;;;;;;;;;;;;;16.35;75.31;100025.53;5422371;32;35183;-71
2023/10/15 02:09:13;;;;;;;;;;;;;;;16.55;75.16;100018.88;5428026;32;34908;-70
2023/10/15 02:12:21;;;;;;;;;;;;;;;16.65;74.77;100014.63;5416810;32;35377;-71
2023/10/15 02:15:23;;;;;;;;;;;;;;;16.98;73.28;100026.50;5413936;32;34824;-71
2023/10/15 02:18:30;;;;;;;;;;;;;;;17.64;71.94;100017.22;5424466;32;35019;-71
2023/10/15 02:21:34;;;;;;;;;;;;;;;17.47;72.02;100015.84;5422688;32;35250;-71
2023/10/15 02:24:36;;;;;;;;;;;;;;;16.84;74.15;100011.56;5434440;32;34590;-72
2023/10/15 02:27:38;;;;;;;;;;;;;;;16.58;75.63;99996.59;5423248;32;35189;-71
2023/10/15 02:30:43;;;;;;;;;;;;;;;16.13;78.29;99989.06;5424111;32;34771;-69
2023/10/15 02:33:48;;;;;;;;;;;;;;;17.17;72.84;99984.38;5424905;32;34892;-70
2023/10/15 02:36:50;;;;;;;;;;;;;;;16.20;78.54;99997.44;5426144;32;35578;-70
2023/10/15 02:39:53;;;;;;;;;;;;;;;16.52;77.38;99993.41;5434353;32;34773;-70
2023/10/15 02:42:55;;;;;;;;;;;;;;;16.28;78.01;100013.66;5423393;32;34267;-70
2023/10/15 02:46:00;;;;;;;;;;;;;;;16.22;77.83;100006.13;5427238;32;36009;-71
2023/10/15 02:49:06;;;;;;;;;;;;;;;15.91;82.24;100017.97;5421068;32;36707;-70
2023/10/15 02:52:18;;;;;;;;;;;;;;;15.82;79.54;100030.03;5416832;32;35335;-70
2023/10/15 02:55:26;;;;;;;;;;;;;;;16.36;79.06;100026.38;5427087;32;34949;-70
2023/10/15 02:58:30;;;;;;;;;;;;;;;15.66;81.94;100043.44;5420431;32;34878;-70
2023/10/15 03:01:32;;;;;;;;;;;;;;;15.74;81.89;100048.25;5403724;32;34387;-70
2023/10/15 03:04:37;;;;;;;;;;;;;;;15.99;80.73;100050.13;5422866;32;34642;-71
2023/10/15 03:07:42;;;;;;;;;;;;;;;16.04;79.56;100037.41;5425118;32;36997;-70
2023/10/15 03:10:45;;;;;;;;;;;;;;;15.61;81.85;100055.25;5425250;32;34493;-69
2023/10/15 03:13:54;;;;;;;;;;;;;;;16.40;78.42;100062.38;5421652;32;35935;-69
2023/10/15 03:16:57;;;;;;;;;;;;;;;16.04;81.20;100061.28;5427007;32;35535;-71
2023/10/15 03:20:11;;;;;;;;;;;;;;;16.21;77.61;100058.31;5422415;32;34261;-71
2023/10/15 03:23:16;;;;;;;;;;;;;;;16.07;80.21;100050.44;5426812;32;34701;-69
2023/10/15 03:26:18;;;;;;;;;;;;;;;16.12;79.49;100035.09;5417335;32;35141;-71
2023/10/15 03:29:23;;;;;;;;;;;;;;;15.45;80.48;100032.41;5421516;32;35691;-69
2023/10/15 03:32:32;;;;;;;;;;;;;;;16.26;77.12;100018.22;5426446;32;35073;-70
2023/10/15 03:35:38;;;;;;;;;;;;;;;15.51;79.40;100030.31;5406785;32;35960;-70
2023/10/15 03:38:46;;;;;;;;;;;;;;;15.25;81.06;100018.75;5425923;32;35396;-71
2023/10/15 03:42:09;;;;;;;;;;;;;;;15.42;80.79;100018.53;5425670;32;34583;-70
2023/10/15 03:45:17;;;;;;;;;;;;;;;15.56;79.84;100025.56;5416350;32;34632;-69
2023/10/15 03:48:28;;;;;;;;;;;;;;;15.32;80.11;100041.22;5426570;32;34586;-70
2023/10/15 03:51:31;;;;;;;;;;;;;;;15.56;79.81;100046.75;5422099;32;35480;-70
2023/10/15 03:54:33;;;;;;;;;;;;;;;15.66;80.07;100046.09;5426445;32;34446;-71
2023/10/15 03:57:36;;;;;;;;;;;;;;;14.96;79.76;100053.22;5421336;32;35564;-70
2023/10/15 04:00:46;;;;;;;;;;;;;;;15.15;79.27;100043.19;5415353;32;34177;-71
2023/10/15 04:03:48;;;;;;;;;;;;;;;14.89;78.70;100036.03;5424212;32;34378;-69
2023/10/15 04:07:03;;;;;;;;;;;;;;;14.99;79.28;100023.06;5422538;32;34954;-70
2023/10/15 04:10:06;;;;;;;;;;;;;;;15.47;76.08;100021.72;5426776;32;34364;-70
2023/10/15 04:13:08;;;;;;;;;;;;;;;15.00;77.27;100025.59;5426153;32;34692;-70
2023/10/15 04:16:11;;;;;;;;;;;;;;;14.97;77.11;100022.31;5425459;32;35063;-70
2023/10/15 04:19:17;;;;;;;;;;;;;;;15.20;75.27;100005.84;5421255;32;35496;-70
2023/10/15 04:22:20;;;;;;;;;;;;;;;15.04;74.89;100003.28;5423074;32;35382;-71
2023/10/15 04:25:26;;;;;;;;;;;;;;;15.12;75.67;100003.66;5412349;32;35491;-71
2023/10/15 04:28:28;;;;;;;;;;;;;;;15.47;73.64;100003.19;5422250;32;35037;-70
2023/10/15 04:31:30;;;;;;;;;;;;;;;15.42;74.71;100008.78;5426965;32;34851;-73
2023/10/15 04:34:33;;;;;;;;;;;;;;;15.37;71.87;100025.91;5421471;32;35083;-72
2023/10/15 04:37:36;;;;;;;;;;;;;;;15.04;73.22;100026.28;5422784;32;34474;-70
2023/10/15 04:43:55;;;;;;;;;;;;;;;14.87;73.32;100061.72;5421346;32;34971;-70
2023/10/15 04:47:09;;;;;;;;;;;;;;;15.06;70.73;100054.31;5426834;32;35261;-70
2023/10/15 04:50:17;;;;;;;;;;;;;;;15.47;69.31;100052.66;5421625;32;34897;-70
2023/10/15 04:56:21;;;;;;;;;;;;;;;14.93;69.49;100045.47;5427690;32;35499;-71
2023/10/15 04:59:24;;;;;;;;;;;;;;;14.64;69.09;100060.50;5425504;32;34960;-71
2023/10/15 05:02:26;;;;;;;;;;;;;;;14.30;70.07;100062.50;5415897;32;34790;-71
2023/10/15 05:05:28;;;;;;;;;;;;;;;14.43;70.53;100073.19;5416492;32;35522;-71
2023/10/15 05:08:30;;;;;;;;;;;;;;;14.29;69.97;100081.06;5411464;32;34900;-71
2023/10/15 05:11:36;;;;;;;;;;;;;;;14.98;67.11;100095.47;5421485;32;35356;-71
2023/10/15 05:14:50;;;;;;;;;;;;;;;14.91;67.73;100121.44;5427702;32;34454;-70
2023/10/15 05:18:00;;;;;;;;;;;;;;;14.68;67.97;100138.69;5412128;32;33903;-72
2023/10/15 05:21:02;;;;;;;;;;;;;;;14.63;69.03;100132.88;5414100;32;35352;-71
2023/10/15 05:24:05;;;;;;;;;;;;;;;14.70;67.96;100128.06;5415189;32;34258;-71
2023/10/15 05:27:07;;;;;;;;;;;;;;;15.06;67.83;100114.34;5421042;32;35044;-70
2023/10/15 05:30:10;;;;;;;;;;;;;;;14.99;66.40;100113.03;5424590;32;35715;-71
2023/10/15 05:33:13;;;;;;;;;;;;;;;14.95;66.16;100106.25;5419959;32;35074;-70
2023/10/15 05:36:15;;;;;;;;;;;;;;;15.04;65.88;100088.00;5402169;32;35024;-71
2023/10/15 05:39:18;;;;;;;;;;;;;;;15.21;65.90;100109.91;5423921;32;34879;-70
2023/10/15 05:42:33;;;;;;;;;;;;;;;14.65;67.14;100119.53;5418851;32;35126;-71
2023/10/15 05:45:35;;;;;;;;;;;;;;;14.34;67.94;100108.94;5422037;32;35023;-69
2023/10/15 05:48:37;;;;;;;;;;;;;;;14.02;69.95;100125.84;5415499;32;35535;-72
2023/10/15 05:51:39;;;;;;;;;;;;;;;14.28;70.08;100134.91;5424413;32;35369;-70
2023/10/15 05:54:42;;;;;;;;;;;;;;;14.25;69.55;100149.16;5429152;32;35480;-70
2023/10/15 05:57:44;;;;;;;;;;;;;;;13.89;70.57;100152.09;5405918;32;34797;-71
2023/10/15 06:00:46;;;;;;;;;;;;;;;14.31;68.97;100159.37;5416183;32;34667;-71
2023/10/15 06:03:48;;;;;;;;;;;;;;;14.00;69.30;100162.91;5412042;32;35043;-72
2023/10/15 06:06:51;;;;;;;;;;;;;;;14.66;69.20;100158.25;5402795;32;35341;-71
2023/10/15 06:09:53;;;;;;;;;;;;;;;14.59;68.77;100174.50;5420736;32;34572;-71
2023/10/15 06:12:56;;;;;;;;;;;;;;;14.23;69.83;100188.06;5424949;32;35556;-71
2023/10/15 06:16:00;;;;;;;;;;;;;;;14.10;68.98;100181.72;5428258;32;34521;-71
2023/10/15 06:19:02;;;;;;;;;;;;;;;14.80;67.99;100184.75;5420234;32;35084;-70
2023/10/15 06:22:05;;;;;;;;;;;;;;;14.66;66.37;100190.00;5425421;32;34612;-70
2023/10/15 06:25:16;;;;;;;;;;;;;;;13.60;70.97;100192.50;5408401;32;34133;-71
2023/10/15 06:28:20;;;;;;;;;;;;;;;14.12;68.52;100194.88;5428228;32;35453;-71
2023/10/15 06:31:23;;;;;;;;;;;;;;;13.50;70.43;100202.69;5423327;32;34908;-71
2023/10/15 06:34:27;;;;;;;;;;;;;;;14.12;69.50;100208.94;5425785;32;34243;-70
2023/10/15 06:37:30;;;;;;;;;;;;;;;13.84;69.74;100193.75;5423004;32;34044;-72
2023/10/15 06:40:32;;;;;;;;;;;;;;;13.37;72.72;100202.50;5421897;32;35459;-71
2023/10/15 06:43:36;;;;;;;;;;;;;;;14.29;68.75;100181.53;5428161;32;34300;-70
2023/10/15 06:46:38;;;;;;;;;;;;;;;14.53;69.31;100188.06;5423533;32;35141;-70
2023/10/15 06:49:41;;;;;;;;;;;;;;;14.46;68.94;100181.44;5426915;32;34887;-71
2023/10/15 06:52:43;;;;;;;;;;;;;;;13.69;71.36;100169.06;5422847;32;34759;-70
2023/10/15 06:55:45;;;;;;;;;;;;;;;13.38;73.75;100171.66;5423066;32;35223;-70
2023/10/15 06:58:48;;;;;;;;;;;;;;;13.96;70.28;100161.38;5424563;32;34516;-70
2023/10/15 07:01:51;;;;;;;;;;;;;;;12.98;72.35;100173.75;5403024;32;34859;-70
2023/10/15 07:04:53;;;;;;;;;;;;;;;13.19;72.91;100166.50;5427156;32;34831;-70
2023/10/15 07:07:58;;;;;;;;;;;;;;;13.50;70.88;100163.09;5409358;32;35433;-71
2023/10/15 07:11:01;;;;;;;;;;;;;;;13.41;70.48;100167.09;5426950;32;34980;-70
2023/10/15 07:14:03;;;;;;;;;;;;;;;13.21;70.82;100151.47;5433018;32;35025;-71
2023/10/15 07:17:05;;;;;;;;;;;;;;;13.44;70.31;100155.50;5427234;32;36880;-70
2023/10/15 07:20:18;;;;;;;;;;;;;;;13.19;70.13;100142.75;5427252;32;35653;-70
2023/10/15 07:23:21;;;;;;;;;;;;;;;13.58;71.56;100137.09;5423875;32;34947;-71
2023/10/15 07:26:23;;;;;;;;;;;;;;;14.70;65.92;100159.78;5427825;32;35296;-71
2023/10/15 07:29:27;;;;;;;;;;;;;;;14.06;67.28;100190.78;5421716;32;34990;-71
2023/10/15 07:32:30;;;;;;;;;;;;;;;13.82;66.74;100215.00;5425226;32;34398;-71
2023/10/15 07:35:32;;;;;;;;;;;;;;;13.57;67.44;100232.25;5408375;32;35214;-71
2023/10/15 07:38:36;;;;;;;;;;;;;;;13.89;66.65;100239.28;5419254;32;34886;-70
2023/10/15 07:41:38;;;;;;;;;;;;;;;13.65;66.97;100248.53;5422448;32;35132;-71
2023/10/15 07:44:40;;;;;;;;;;;;;;;14.12;66.58;100248.59;5421675;32;34495;-70
2023/10/15 07:47:42;;;;;;;;;;;;;;;14.01;64.19;100246.53;5427081;32;36815;-70
2023/10/15 07:50:45;;;;;;;;;;;;;;;13.51;68.02;100252.75;5417682;32;34620;-70
2023/10/15 07:53:47;;;;;;;;;;;;;;;13.55;67.71;100259.59;5432734;32;35027;-71
2023/10/15 07:56:49;;;;;;;;;;;;;;;13.80;66.19;100245.09;5422768;32;38084;-71
2023/10/15 07:59:54;;;;;;;;;;;;;;;14.20;64.33;100240.22;5424974;32;34893;-70
2023/10/15 08:03:00;;;;;;;;;;;;;;;13.44;66.24;100229.41;5423415;32;35049;-71
2023/10/15 08:06:03;;;;;;;;;;;;;;;13.52;65.57;100212.25;5415458;32;34768;-71
2023/10/15 08:09:06;;;;;;;;;;;;;;;13.97;64.23;100221.19;5412625;32;34805;-70
2023/10/15 08:12:08;;;;;;;;;;;;;;;13.50;64.74;100239.66;5421916;32;35196;-72
2023/10/15 08:15:11;;;;;;;;;;;;;;;14.09;63.00;100220.53;5408711;32;35211;-72
2023/10/15 08:18:13;;;;;;;;;;;;;;;13.71;63.87;100208.59;5424876;32;35445;-71
2023/10/15 08:21:15;;;;;;;;;;;;;;;13.93;64.70;100195.06;5418624;32;34879;-71
2023/10/15 08:24:19;;;;;;;;;;;;;;;14.55;62.08;100225.84;5424718;32;34546;-70
2023/10/15 08:27:21;;;;;;;;;;;;;;;14.48;59.99;100224.50;5422936;32;34413;-71
2023/10/15 08:30:23;;;;;;;;;;;;;;;13.95;61.91;100220.44;5425693;32;35436;-70
2023/10/15 08:33:25;;;;;;;;;;;;;;;14.83;59.92;100219.81;5423406;32;34221;-71
2023/10/15 08:36:28;;;;;;;;;;;;;;;14.34;61.94;100213.84;5419983;32;35529;-69
2023/10/15 08:39:30;;;;;;;;;;;;;;;13.90;62.76;100209.28;5424559;32;34910;-70
2023/10/15 08:42:34;;;;;;;;;;;;;;;14.51;61.21;100213.78;5422596;32;34573;-70
2023/10/15 08:45:36;;;;;;;;;;;;;;;14.81;59.42;100212.91;5417916;32;34253;-70
2023/10/15 08:48:40;;;;;;;;;;;;;;;14.35;59.25;100213.75;5420757;32;34892;-72
2023/10/15 08:51:42;;;;;;;;;;;;;;;14.34;60.63;100221.78;5424440;32;35404;-70
2023/10/15 08:54:45;;;;;;;;;;;;;;;14.81;59.73;100231.41;5427161;32;34717;-70
2023/10/15 08:57:47;;;;;;;;;;;;;;;14.80;57.31;100225.28;5420358;32;34623;-70
2023/10/15 09:00:49;;;;;;;;;;;;;;;14.74;57.69;100220.34;5411183;32;35146;-70
2023/10/15 09:03:54;;;;;;;;;;;;;;;14.55;58.07;100220.56;5410842;32;34693;-70
2023/10/15 09:07:01;;;;;;;;;;;;;;;14.82;57.04;100230.50;5422412;32;34932;-72
2023/10/15 09:10:03;;;;;;;;;;;;;;;15.33;56.84;100223.00;5426873;32;34262;-70
2023/10/15 09:13:12;;;;;;;;;;;;;;;15.06;56.85;100228.16;5431340;32;34272;-71
2023/10/15 09:16:14;;;;;;;;;;;;;;;15.10;55.86;100217.31;5421963;32;34403;-71
2023/10/15 09:19:22;;;;;;;;;;;;;;;14.85;56.60;100225.84;5422098;32;35483;-72
2023/10/15 09:22:40;;;;;;;;;;;;;;;15.60;54.97;100215.16;5406853;32;36800;-71
2023/10/15 09:25:57;;;;;;;;;;;;;;;15.02;56.67;100203.69;5396230;32;34238;-72
2023/10/15 09:29:31;;;;;;;;;;;;;;;15.09;55.29;100196.22;5413501;32;32971;-73
2023/10/15 09:32:47;;;;;;;;;;;;;;;15.46;54.94;100194.81;5403594;32;33758;-70
2023/10/15 09:35:50;;;;;;;;;;;;;;;15.34;54.83;100196.44;5414509;32;34351;-71
2023/10/15 09:38:54;;;;;;;;;;;;;;;14.93;55.58;100211.31;5426320;32;35060;-70
2023/10/15 09:41:56;;;;;;;;;;;;;;;15.85;52.51;100222.44;5417437;32;34207;-70
2023/10/15 09:45:01;;;;;;;;;;;;;;;14.68;54.09;100226.00;5429482;32;35040;-71
2023/10/15 09:48:05;;;;;;;;;;;;;;;15.41;52.70;100210.16;5418134;32;34756;-71
2023/10/15 09:51:07;;;;;;;;;;;;;;;14.99;54.02;100214.44;5415847;32;34291;-71
2023/10/15 09:54:14;;;;;;;;;;;;;;;15.40;51.00;100204.00;5411960;32;35017;-72
2023/10/15 09:57:16;;;;;;;;;;;;;;;15.14;51.49;100218.00;5419742;32;34783;-71
2023/10/15 10:00:26;;;;;;;;;;;;;;;14.06;52.79;100226.00;5430306;32;34520;-71
2023/10/15 10:03:49;;;;;;;;;;;;;;;14.67;51.30;100236.66;5422043;32;34361;-70
2023/10/15 10:07:01;;;;;;;;;;;;;;;15.28;48.67;100230.37;5420651;32;34741;-71
2023/10/15 10:10:04;;;;;;;;;;;;;;;15.85;46.91;100238.34;5427904;32;34303;-70
2023/10/15 10:13:19;;;;;;;;;;;;;;;16.08;45.65;100232.41;5409063;32;34977;-71
2023/10/15 10:16:24;;;;;;;;;;;;;;;15.41;46.52;100226.87;5427615;32;34535;-71
2023/10/15 10:19:27;;;;;;;;;;;;;;;14.99;46.75;100221.53;5421549;32;35006;-71
2023/10/15 10:22:29;;;;;;;;;;;;;;;15.46;45.99;100218.66;5423687;32;35020;-71
2023/10/15 10:25:32;;;;;;;;;;;;;;;15.90;45.09;100228.28;5426295;32;35369;-71
2023/10/15 10:28:34;;;;;;;;;;;;;;;16.02;44.28;100231.94;5423553;32;35245;-70
2023/10/15 10:31:39;;;;;;;;;;;;;;;14.89;45.01;100234.47;5422630;32;35195;-71
2023/10/15 10:34:41;;;;;;;;;;;;;;;14.94;46.05;100229.78;5416887;32;34710;-73
2023/10/15 10:38:05;;;;;;;;;;;;;;;15.25;45.04;100231.41;5424918;32;34827;-71
2023/10/15 10:41:14;;;;;;;;;;;;;;;15.30;45.91;100223.19;5418746;32;36185;-71
2023/10/15 10:44:28;;;;;;;;;;;;;;;14.66;46.32;100227.88;5425229;32;35566;-71
2023/10/15 10:47:33;;;;;;;;;;;;;;;15.22;45.58;100217.53;5420468;32;35609;-71
2023/10/15 10:50:45;;;;;;;;;;;;;;;15.76;44.93;100223.00;5414438;32;36401;-71
2023/10/15 10:53:59;;;;;;;;;;;;;;;16.33;43.80;100222.88;5421657;32;34393;-71
2023/10/15 10:57:06;;;;;;;;;;;;;;;16.75;42.31;100220.06;5424494;32;35744;-70
2023/10/15 11:00:12;;;;;;;;;;;;;;;15.71;45.37;100223.28;5416314;32;34330;-71
2023/10/15 11:03:14;;;;;;;;;;;;;;;16.18;44.81;100232.69;5423624;32;35006;-70
2023/10/15 11:06:16;;;;;;;;;;;;;;;14.82;47.98;100236.63;5409372;32;35614;-71
2023/10/15 11:09:25;;;;;;;;;;;;;;;15.54;46.49;100226.97;5427106;32;35063;-70
2023/10/15 11:12:27;;;;;;;;;;;;;;;14.97;48.22;100224.28;5422923;32;34985;-73
2023/10/15 11:15:29;;;;;;;;;;;;;;;14.90;48.43;100236.19;5430008;32;34856;-72
2023/10/15 11:18:35;;;;;;;;;;;;;;;15.30;48.08;100249.66;5429658;32;34466;-72
2023/10/15 11:21:40;;;;;;;;;;;;;;;15.32;48.07;100242.47;5423286;32;34200;-71
2023/10/15 11:24:45;;;;;;;;;;;;;;;14.74;49.06;100241.50;5427412;32;34656;-71
2023/10/15 11:27:48;;;;;;;;;;;;;;;15.58;47.60;100244.37;5426849;32;35756;-71
2023/10/15 11:30:50;;;;;;;;;;;;;;;15.39;47.85;100234.09;5427532;32;35110;-71
2023/10/15 11:33:53;;;;;;;;;;;;;;;15.48;48.04;100237.09;5428689;32;34897;-70
2023/10/15 11:37:00;;;;;;;;;;;;;;;15.56;47.61;100240.13;5417839;32;34679;-71
2023/10/15 11:40:04;;;;;;;;;;;;;;;15.67;47.55;100237.69;5425959;32;34711;-71
2023/10/15 11:43:25;;;;;;;;;;;;;;;15.33;48.68;100233.59;5425056;32;35079;-71
2023/10/15 11:46:27;;;;;;;;;;;;;;;15.23;49.10;100248.34;5422048;32;34157;-72
2023/10/15 11:49:30;;;;;;;;;;;;;;;16.12;47.21;100248.97;5417928;32;34785;-69
2023/10/15 11:52:38;;;;;;;;;;;;;;;16.22;46.13;100245.62;5420531;32;34376;-70
2023/10/15 11:55:41;;;;;;;;;;;;;;;15.42;48.20;100239.19;5424156;32;34766;-71
2023/10/15 11:58:45;;;;;;;;;;;;;;;15.05;49.26;100235.25;5419587;32;34881;-71
2023/10/15 12:01:51;;;;;;;;;;;;;;;14.87;49.79;100231.91;5425563;32;34424;-71
2023/10/15 12:04:56;;;;;;;;;;;;;;;15.05;49.46;100231.75;5419459;32;34419;-70
2023/10/15 12:08:03;;;;;;;;;;;;;;;15.09;49.33;100230.66;5435377;32;34776;-73
2023/10/15 12:11:05;;;;;;;;;;;;;;;15.52;48.78;100228.00;5422287;32;34502;-71
2023/10/15 12:14:07;;;;;;;;;;;;;;;15.92;47.95;100229.06;5421690;32;34371;-69
2023/10/15 12:17:12;;;;;;;;;;;;;;;15.29;47.70;100234.72;5436958;32;34635;-71
2023/10/15 12:20:17;;;;;;;;;;;;;;;15.43;48.19;100235.56;5417965;32;35229;-71
2023/10/15 12:23:21;;;;;;;;;;;;;;;15.56;47.46;100240.97;5426367;32;34789;-72
2023/10/15 12:26:23;;;;;;;;;;;;;;;15.17;48.00;100247.75;5433052;32;34443;-72
2023/10/15 12:29:28;;;;;;;;;;;;;;;16.21;46.09;100246.56;5424103;32;35354;-70
2023/10/15 12:32:32;;;;;;;;;;;;;;;15.43;47.58;100245.31;5433464;32;35149;-70
2023/10/15 12:35:50;;;;;;;;;;;;;;;15.80;45.79;100261.63;5421336;32;35374;-70
2023/10/15 12:38:52;;;;;;;;;;;;;;;15.13;46.52;100269.19;5421991;32;35565;-71
2023/10/15 12:41:55;;;;;;;;;;;;;;;15.43;45.08;100261.22;5421873;32;35485;-71
2023/10/15 12:44:57;;;;;;;;;;;;;;;15.57;44.67;100261.22;5426363;32;34774;-71
2023/10/15 12:48:00;;;;;;;;;;;;;;;15.66;44.02;100257.19;5421127;32;34431;-72
2023/10/15 12:51:02;;;;;;;;;;;;;;;14.76;45.49;100259.97;5420872;32;34940;-70
2023/10/15 12:54:04;;;;;;;;;;;;;;;15.39;43.95;100246.44;5425632;32;36122;-71
2023/10/15 12:57:07;;;;;;;;;;;;;;;15.50;43.68;100259.88;5421637;32;34555;-71
2023/10/15 13:00:19;;;;;;;;;;;;;;;15.38;43.85;100265.94;5419668;32;34428;-71
2023/10/15 13:03:21;;;;;;;;;;;;;;;15.10;44.96;100249.06;5416641;32;34801;-70
2023/10/15 13:06:25;;;;;;;;;;;;;;;15.55;43.51;100249.00;5426020;32;37325;-71
2023/10/15 13:09:32;;;;;;;;;;;;;;;14.98;44.65;100259.53;5422955;32;35352;-70
2023/10/15 13:12:35;;;;;;;;;;;;;;;14.96;44.21;100254.34;5421343;32;34200;-72
2023/10/15 13:15:37;;;;;;;;;;;;;;;14.21;45.72;100257.78;5423612;32;34779;-70
2023/10/15 13:18:40;;;;;;;;;;;;;;;14.20;46.56;100258.72;5419662;32;35073;-71
2023/10/15 13:21:42;;;;;;;;;;;;;;;14.06;46.41;100255.06;5426509;32;34347;-71
2023/10/15 13:24:44;;;;;;;;;;;;;;;14.55;45.49;100268.16;5427670;32;35081;-71
2023/10/15 13:27:46;;;;;;;;;;;;;;;15.01;45.44;100259.38;5406880;32;35057;-70
2023/10/15 13:30:48;;;;;;;;;;;;;;;15.17;44.89;100254.84;5421668;32;35475;-71
2023/10/15 13:33:50;;;;;;;;;;;;;;;14.92;44.81;100246.66;5425853;32;35862;-71
2023/10/15 13:36:53;;;;;;;;;;;;;;;15.17;43.38;100245.09;5410761;32;34814;-70
2023/10/15 13:39:56;;;;;;;;;;;;;;;14.47;45.08;100243.13;5413462;32;34901;-70
2023/10/15 13:42:59;;;;;;;;;;;;;;;14.58;44.97;100252.12;5413567;32;34946;-71
2023/10/15 13:46:02;;;;;;;;;;;;;;;14.15;46.19;100250.19;5424127;32;33292;-71
2023/10/15 13:49:04;;;;;;;;;;;;;;;14.53;44.79;100266.56;5424509;32;35582;-71
2023/10/15 13:52:07;;;;;;;;;;;;;;;14.61;43.92;100262.53;5425979;32;35599;-70
2023/10/15 13:55:09;;;;;;;;;;;;;;;14.60;44.27;100263.47;5424833;32;34755;-71
2023/10/15 13:58:11;;;;;;;;;;;;;;;15.24;43.47;100279.16;5425531;32;34418;-70
2023/10/15 14:01:14;;;;;;;;;;;;;;;14.22;44.83;100270.91;5429259;32;35720;-70
2023/10/15 14:04:18;;;;;;;;;;;;;;;14.38;44.66;100270.06;5426590;32;34550;-70
2023/10/15 14:07:20;;;;;;;;;;;;;;;13.79;45.85;100267.16;5423644;32;34821;-71
2023/10/15 14:10:23;;;;;;;;;;;;;;;14.04;45.27;100259.59;5424593;32;34908;-72
2023/10/15 14:13:25;;;;;;;;;;;;;;;14.48;45.06;100244.81;5426217;32;35956;-71
2023/10/15 14:16:27;;;;;;;;;;;;;;;14.68;43.84;100228.62;5408916;32;34983;-71
2023/10/15 14:19:30;;;;;;;;;;;;;;;14.26;45.29;100230.16;5427160;32;35155;-71
2023/10/15 14:22:32;;;;;;;;;;;;;;;14.52;44.56;100247.19;5430172;32;34981;-70
2023/10/15 14:25:38;;;;;;;;;;;;;;;14.59;44.16;100279.44;5427985;32;34211;-70
2023/10/15 14:28:43;;;;;;;;;;;;;;;14.22;45.02;100294.69;5423408;32;34839;-71
2023/10/15 14:31:45;;;;;;;;;;;;;;;14.03;45.85;100280.78;5422507;32;34927;-71
2023/10/15 14:34:52;;;;;;;;;;;;;;;14.15;46.21;100273.97;5433472;32;34815;-73
2023/10/15 14:37:55;;;;;;;;;;;;;;;14.25;45.89;100262.81;5423958;32;34965;-70
2023/10/15 14:40:58;;;;;;;;;;;;;;;13.93;45.93;100269.03;5423035;32;34803;-71
2023/10/15 14:44:00;;;;;;;;;;;;;;;13.79;46.79;100257.44;5419659;32;34156;-70
2023/10/15 14:47:08;;;;;;;;;;;;;;;14.72;44.52;100243.41;5422012;32;34227;-70
2023/10/15 14:50:50;;;;;;;;;;;;;;;14.37;45.52;100248.06;5417549;32;34321;-73
2023/10/15 14:54:15;;;;;;;;;;;;;;;13.93;46.46;100237.34;5424941;32;35742;-71
2023/10/15 14:57:29;;;;;;;;;;;;;;;15.10;44.29;100246.44;5411001;32;35326;-71
2023/10/15 15:00:32;;;;;;;;;;;;;;;14.54;45.00;100245.31;5405710;32;35112;-72
2023/10/15 15:03:35;;;;;;;;;;;;;;;14.80;45.37;100245.59;5421980;32;34584;-71
2023/10/15 15:06:37;;;;;;;;;;;;;;;13.91;46.95;100244.47;5409956;32;35709;-71
2023/10/15 15:09:40;;;;;;;;;;;;;;;14.58;45.74;100246.00;5418651;32;35411;-71
2023/10/15 15:12:45;;;;;;;;;;;;;;;14.26;46.24;100235.44;5423505;32;34465;-73
2023/10/15 15:15:47;;;;;;;;;;;;;;;14.27;46.04;100231.00;5410012;32;35454;-70
2023/10/15 15:18:50;;;;;;;;;;;;;;;13.80;47.49;100243.28;5420396;32;34161;-71
2023/10/15 15:21:53;;;;;;;;;;;;;;;14.06;46.77;100236.56;5424656;32;34609;-71
2023/10/15 15:24:55;;;;;;;;;;;;;;;13.85;47.21;100227.19;5430878;32;34779;-72
2023/10/15 15:27:57;;;;;;;;;;;;;;;13.98;46.71;100222.09;5432376;32;34686;-72
2023/10/15 15:30:59;;;;;;;;;;;;;;;14.95;44.57;100236.75;5422775;32;35377;-70
2023/10/15 15:34:03;;;;;;;;;;;;;;;14.13;46.53;100246.78;5417475;32;35043;-70
2023/10/15 15:37:05;;;;;;;;;;;;;;;14.07;46.74;100250.63;5416056;32;34903;-70
2023/10/15 15:40:08;;;;;;;;;;;;;;;13.88;46.84;100249.94;5425557;32;34821;-70
2023/10/15 15:43:10;;;;;;;;;;;;;;;14.24;46.92;100249.69;5427030;32;34984;-71
2023/10/15 15:46:13;;;;;;;;;;;;;;;14.10;47.18;100250.44;5423045;32;34354;-70
2023/10/15 15:49:15;;;;;;;;;;;;;;;14.66;45.92;100256.12;5409727;32;34727;-71
2023/10/15 15:52:17;;;;;;;;;;;;;;;14.54;46.14;100268.25;5422075;32;35105;-72
2023/10/15 15:55:21;;;;;;;;;;;;;;;15.02;44.97;100264.56;5412819;32;34386;-72
2023/10/15 15:58:23;;;;;;;;;;;;;;;14.21;46.83;100257.78;5413897;32;34995;-71
2023/10/15 16:01:25;;;;;;;;;;;;;;;14.37;47.01;100279.78;5420940;32;35153;-71